Time;durP1;ratioP1;P1;durP2;ratioP2;P2;SDS_P1;SDS_P2;PMS_P1;PMS_P2;Temp;Humidity;BMP_temperature;BMP_pressure;BME280_temperature;BME280_humidity;BME280_pressure;Samples;Min_cycle;Max_cycle;Signal;HPM_P1;HPM_P2
2023/01/03 00:01:51;;;;;;;2.58;1.30;;;;;;;15.45;49.31;102377.31;5025907;28;20064;-68
2023/01/03 00:04:17;;;;;;;4.50;2.17;;;;;;;15.39;48.72;102384.06;5043209;28;20036;-68
2023/01/03 00:06:44;;;;;;;4.03;1.90;;;;;;;15.37;48.57;102372.53;5049205;28;20144;-68
2023/01/03 00:09:15;;;;;;;4.28;1.60;;;;;;;15.35;48.75;102369.13;5041225;28;20060;-68
2023/01/03 00:14:28;;;;;;;9.27;2.35;;;;;;;15.30;48.71;102367.75;5042755;28;20092;-69
2023/01/03 00:16:55;;;;;;;3.75;2.20;;;;;;;15.28;49.44;102367.88;5040813;28;20051;-68
2023/01/03 00:19:22;;;;;;;5.88;1.90;;;;;;;15.25;50.00;102370.81;5042274;28;20063;-69
2023/01/03 00:21:47;;;;;;;5.32;1.83;;;;;;;15.24;49.04;102369.13;5042496;28;20037;-68
2023/01/03 00:24:13;;;;;;;8.40;2.25;;;;;;;15.22;50.06;102373.75;5040904;28;20021;-69
2023/01/03 00:26:39;;;;;;;7.60;2.10;;;;;;;15.19;48.62;102374.00;5024704;28;20029;-69
2023/01/03 00:29:05;;;;;;;5.75;1.90;;;;;;;15.17;49.43;102373.25;5024233;28;20032;-68
2023/01/03 00:31:30;;;;;;;2.97;2.00;;;;;;;15.14;48.96;102374.38;5040648;28;20025;-68
2023/01/03 00:33:56;;;;;;;4.22;1.58;;;;;;;15.11;49.62;102374.59;5031847;28;20107;-69
2023/01/03 00:36:21;;;;;;;4.05;2.08;;;;;;;15.08;49.04;102369.44;5052627;28;20036;-69
2023/01/03 00:38:46;;;;;;;2.75;1.67;;;;;;;15.06;48.66;102381.34;5052708;28;20052;-69
2023/01/03 00:41:14;;;;;;;7.57;2.38;;;;;;;15.05;48.66;102374.22;5053284;28;20443;-67
2023/01/03 00:43:41;;;;;;;7.45;2.80;;;;;;;15.02;49.08;102369.06;5052894;28;20040;-69
2023/01/03 00:46:08;;;;;;;1.70;1.60;;;;;;;15.00;48.49;102373.72;5052836;28;20029;-68
2023/01/03 00:48:34;;;;;;;5.18;1.58;;;;;;;14.98;48.43;102373.00;5034982;28;20029;-68
2023/01/03 00:51:07;;;;;;;3.97;1.50;;;;;;;14.96;48.92;102366.88;5052769;28;20036;-68
2023/01/03 00:53:34;;;;;;;4.95;2.03;;;;;;;14.93;49.49;102372.50;5035376;28;20078;-68
2023/01/03 00:56:18;;;;;;;4.90;2.10;;;;;;;14.91;49.29;102377.13;5052713;28;20048;-66
2023/01/03 00:58:43;;;;;;;7.50;2.17;;;;;;;14.89;48.58;102379.09;5034967;28;20453;-66
2023/01/03 01:01:15;;;;;;;3.13;1.50;;;;;;;14.87;49.05;102376.53;5052900;28;20099;-68
2023/01/03 01:03:44;;;;;;;5.82;2.05;;;;;;;14.85;49.60;102380.31;5052974;28;20036;-69
2023/01/03 01:06:21;;;;;;;2.78;1.50;;;;;;;14.83;49.91;102379.56;5052535;28;20496;-67
2023/01/03 01:08:47;;;;;;;7.30;1.55;;;;;;;14.82;49.10;102383.25;5047888;28;20033;-70
2023/01/03 01:11:13;;;;;;;6.22;1.80;;;;;;;14.78;48.28;102381.75;5053059;28;20048;-68
2023/01/03 01:13:40;;;;;;;4.30;2.20;;;;;;;14.75;49.34;102392.78;5052421;28;20064;-67
2023/01/03 01:16:11;;;;;;;4.28;2.05;;;;;;;14.74;48.55;102391.09;5034669;28;20033;-68
2023/01/03 01:18:38;;;;;;;5.40;2.03;;;;;;;14.71;48.73;102391.31;5034698;28;20037;-68
2023/01/03 01:21:05;;;;;;;3.28;1.45;;;;;;;14.67;49.05;102400.59;5034938;28;20481;-69
2023/01/03 01:23:31;;;;;;;2.28;1.83;;;;;;;14.64;49.26;102398.13;5052961;28;20061;-68
2023/01/03 01:26:00;;;;;;;4.05;1.67;;;;;;;14.58;48.58;102408.44;5052316;28;20061;-69
2023/01/03 01:28:25;;;;;;;3.90;1.58;;;;;;;14.53;47.90;102413.31;5034664;28;20543;-67
2023/01/03 01:30:51;;;;;;;2.40;1.33;;;;;;;14.49;48.10;102410.94;5052620;28;20037;-67
2023/01/03 01:33:16;;;;;;;6.20;1.42;;;;;;;14.43;49.42;102420.34;5034479;28;20488;-68
2023/01/03 01:35:41;;;;;;;5.90;1.95;;;;;;;14.37;47.90;102415.44;5052536;28;20083;-70
2023/01/03 01:38:07;;;;;;;7.35;1.70;;;;;;;14.34;48.53;102423.75;5052578;28;20487;-67
2023/01/03 01:40:32;;;;;;;7.05;1.80;;;;;;;14.30;48.39;102433.00;5052269;28;20063;-68
2023/01/03 01:45:46;;;;;;;3.88;1.83;;;;;;;14.22;48.05;102434.53;5037256;28;20086;-69
2023/01/03 01:48:13;;;;;;;2.50;1.52;;;;;;;14.20;49.49;102440.06;5052346;28;20385;-68
2023/01/03 01:50:49;;;;;;;5.05;2.00;;;;;;;14.17;48.16;102445.69;5052710;28;20053;-68
2023/01/03 01:53:24;;;;;;;4.90;1.48;;;;;;;14.11;48.17;102446.13;5052724;28;20043;-70
2023/01/03 01:56:00;;;;;;;3.75;2.15;;;;;;;14.07;48.14;102443.78;5051953;28;20455;-67
2023/01/03 01:58:28;;;;;;;6.50;1.90;;;;;;;14.00;48.61;102448.75;5052024;28;20496;-67
2023/01/03 02:00:54;;;;;;;5.15;2.03;;;;;;;13.97;48.34;102444.44;5034455;28;20044;-68
2023/01/03 02:03:19;;;;;;;2.78;1.70;;;;;;;13.96;48.89;102452.59;5035712;28;20037;-68
2023/01/03 02:05:48;;;;;;;1.40;1.30;;;;;;;13.95;49.37;102453.59;5055732;28;20025;-68
2023/01/03 02:08:14;;;;;;;3.33;1.95;;;;;;;13.95;49.64;102453.59;5038186;28;20467;-66
2023/01/03 02:11:04;;;;;;;7.85;2.40;;;;;;;13.96;48.62;102449.91;5055581;28;20120;-68
2023/01/03 02:13:41;;;;;;;7.88;2.40;;;;;;;13.94;48.42;102446.47;5055554;28;20127;-68
2023/01/03 02:16:25;;;;;;;12.88;1.85;;;;;;;13.92;49.39;102445.75;5055470;28;20033;-69
2023/01/03 02:19:15;;;;;;;8.50;2.30;;;;;;;13.90;49.91;102453.91;5055336;28;20029;-67
2023/01/03 02:21:56;;;;;;;4.40;2.15;;;;;;;13.91;48.37;102454.78;5037696;28;20036;-67
2023/01/03 02:24:42;;;;;;;2.17;1.92;;;;;;;13.91;49.82;102455.66;5055268;28;20037;-67
2023/01/03 02:27:26;;;;;;;7.45;1.75;;;;;;;13.91;48.81;102458.34;5055572;28;20064;-67
2023/01/03 02:30:06;;;;;;;3.60;2.28;;;;;;;13.90;49.36;102447.69;5055187;28;20036;-69
2023/01/03 02:32:57;;;;;;;4.70;2.05;;;;;;;13.86;48.92;102452.44;5055458;28;20040;-68
2023/01/03 02:35:31;;;;;;;4.15;1.92;;;;;;;13.85;49.64;102444.44;5037110;28;20073;-67
2023/01/03 02:38:36;;;;;;;7.88;2.88;;;;;;;13.84;50.05;102453.53;5037048;28;20451;-68
2023/01/03 02:41:23;;;;;;;6.38;3.10;;;;;;;13.84;48.62;102442.75;5037171;28;20084;-66
2023/01/03 02:44:21;;;;;;;4.03;2.13;;;;;;;13.85;49.96;102449.84;5021231;28;20424;-67
2023/01/03 02:46:50;;;;;;;6.03;1.80;;;;;;;13.88;48.51;102455.88;5020081;28;20037;-66
2023/01/03 02:49:24;;;;;;;3.28;2.10;;;;;;;13.91;49.28;102454.78;5037184;28;20412;-68
2023/01/03 02:51:58;;;;;;;5.82;2.63;;;;;;;13.93;49.68;102450.16;5037210;28;20124;-67
2023/01/03 02:54:31;;;;;;;4.75;1.90;;;;;;;13.94;48.61;102449.19;5036923;28;20515;-69
2023/01/03 02:57:13;;;;;;;;;;;;;;;13.93;48.33;102442.91;5020822;28;20048;-69
2023/01/03 02:59:46;;;;;;;13.35;2.38;;;;;;;13.92;48.29;102440.34;5070475;28;19909;-69
2023/01/03 03:02:13;;;;;;;7.07;1.98;;;;;;;13.91;49.79;102452.09;5020352;28;20040;-68
2023/01/03 03:04:39;;;;;;;12.80;2.30;;;;;;;13.89;49.76;102446.81;5020197;28;20033;-69
2023/01/03 03:07:07;;;;;;;3.42;2.30;;;;;;;13.88;48.74;102445.09;5036637;28;20041;-68
2023/01/03 03:13:11;;;;;;;10.55;2.83;;;;;;;13.88;49.11;102445.09;5054581;28;20116;-68
2023/01/03 03:15:03;;;;;;;6.45;1.85;;;;;;;13.88;49.48;102441.53;5054239;28;20086;-67
2023/01/03 03:17:29;;;;;;;4.25;2.22;;;;;;;13.88;50.03;102438.84;5036832;28;20262;-68
2023/01/03 03:25:39;;;;;;;3.20;1.50;;;;;;;13.89;50.01;102443.25;5054118;28;20059;-66
2023/01/03 03:30:55;;;;;;;2.50;1.75;;;;;;;13.86;48.30;102435.41;5039372;28;20503;-68
2023/01/03 03:33:23;;;;;;;4.90;2.47;;;;;;;13.82;48.70;102431.19;5037624;28;20095;-68
2023/01/03 03:35:52;;;;;;;2.88;1.77;;;;;;;13.79;49.18;102434.97;5054779;28;20033;-66
2023/01/03 03:38:23;;;;;;;4.30;1.65;;;;;;;13.75;48.89;102433.50;5054247;28;20052;-67
2023/01/03 03:47:02;;;;;;;2.47;2.00;;;;;;;13.59;49.07;102434.69;5038693;28;20040;-67
2023/01/03 03:49:37;;;;;;;2.22;1.88;;;;;;;13.61;49.13;102438.13;5035989;28;20080;-67
2023/01/03 03:52:09;;;;;;;3.63;1.92;;;;;;;13.59;48.29;102434.69;5053643;28;20164;-70
2023/01/03 03:54:36;;;;;;;4.55;2.03;;;;;;;13.59;48.83;102440.09;5003353;28;20524;-67
2023/01/03 03:57:17;;;;;;;5.85;2.03;;;;;;;13.59;49.50;102443.66;5053424;28;20064;-69
2023/01/03 03:59:47;;;;;;;2.38;2.05;;;;;;;13.58;48.84;102444.59;5053324;28;20086;-67
2023/01/03 04:02:14;;;;;;;4.50;1.92;;;;;;;13.58;49.82;102444.59;5053964;28;20070;-68
2023/01/03 04:04:42;;;;;;;6.63;2.25;;;;;;;13.58;49.64;102446.44;5035552;28;20068;-68
2023/01/03 04:07:07;;;;;;;4.68;1.88;;;;;;;13.59;48.74;102445.47;5035713;28;20033;-69
2023/01/03 04:09:33;;;;;;;7.03;1.60;;;;;;;13.58;49.26;102443.72;5053205;28;20029;-67
2023/01/03 04:11:58;;;;;;;5.75;2.13;;;;;;;13.59;49.58;102451.72;5019132;28;20087;-67
2023/01/03 04:14:23;;;;;;;4.68;1.85;;;;;;;13.59;49.80;102448.16;5035703;28;20075;-66
2023/01/03 04:16:49;;;;;;;5.68;1.85;;;;;;;13.57;49.84;102442.03;5035480;28;20037;-67
2023/01/03 04:19:14;;;;;;;4.13;2.03;;;;;;;13.55;49.04;102436.75;5053048;28;20044;-66
2023/01/03 04:21:39;;;;;;;3.65;1.85;;;;;;;13.53;49.63;102433.31;5053253;28;20545;-69
2023/01/03 04:24:06;;;;;;;2.65;1.60;;;;;;;13.51;48.68;102437.06;5053128;28;20520;-68
2023/01/03 04:26:31;;;;;;;4.25;1.50;;;;;;;13.50;49.49;102438.03;5052917;28;20021;-68
2023/01/03 04:28:57;;;;;;;3.45;1.30;;;;;;;13.48;48.64;102431.91;5053106;28;20033;-66
2023/01/03 04:31:22;;;;;;;3.63;1.60;;;;;;;13.48;48.70;102443.53;5052960;28;20116;-66
2023/01/03 04:33:47;;;;;;;1.67;1.45;;;;;;;13.48;49.70;102443.53;5035062;28;20432;-67
2023/01/03 04:36:13;;;;;;;3.70;1.83;;;;;;;13.49;49.59;102444.38;5052665;28;20053;-67
2023/01/03 04:38:38;;;;;;;2.75;1.73;;;;;;;13.47;49.40;102439.13;5053074;28;20420;-68
2023/01/03 04:41:07;;;;;;;1.80;1.20;;;;;;;13.51;49.04;102439.78;5052791;28;20064;-67
2023/01/03 04:46:17;;;;;;;3.42;1.50;;;;;;;13.49;48.41;102430.91;5052756;28;20083;-67
2023/01/03 04:48:42;;;;;;;6.80;1.83;;;;;;;13.50;48.74;102435.34;5052327;28;20092;-68
2023/01/03 04:51:08;;;;;;;2.78;1.58;;;;;;;13.49;49.96;102434.47;5049117;28;20029;-68
2023/01/03 04:53:34;;;;;;;5.70;1.83;;;;;;;13.50;48.53;102435.34;5033065;28;20026;-68
2023/01/03 04:55:59;;;;;;;5.90;1.65;;;;;;;13.48;48.72;102435.47;5032643;28;20048;-68
2023/01/03 04:58:25;;;;;;;4.40;1.92;;;;;;;13.46;48.44;102432.00;5032627;28;20064;-68
2023/01/03 05:00:50;;;;;;;3.58;1.20;;;;;;;13.47;49.05;102427.47;5042345;28;20037;-67
2023/01/03 05:03:16;;;;;;;2.90;2.13;;;;;;;13.50;49.24;102427.28;5052465;28;20488;-68
2023/01/03 05:05:41;;;;;;;7.25;2.20;;;;;;;13.51;50.06;102429.00;5052846;28;20017;-67
2023/01/03 05:08:09;;;;;;;2.47;1.38;;;;;;;13.53;49.98;102427.91;5034664;28;20048;-69
2023/01/03 05:10:37;;;;;;;5.05;2.53;;;;;;;13.56;49.82;102429.53;5052392;28;20091;-67
2023/01/03 05:13:02;;;;;;;2.47;1.60;;;;;;;13.55;49.38;102425.09;5052641;28;20033;-67
2023/01/03 05:15:29;;;;;;;2.08;1.20;;;;;;;13.57;49.63;102421.31;5046000;28;20048;-67
2023/01/03 05:17:54;;;;;;;2.85;1.40;;;;;;;13.60;49.38;102417.56;5034461;28;20179;-66
2023/01/03 05:25:49;;;;;;;5.10;2.20;;;;;;;13.69;48.68;102422.28;5035044;28;20052;-67
2023/01/03 05:28:15;;;;;;;3.65;1.60;;;;;;;13.71;49.36;102431.09;5027810;28;20060;-69
2023/01/03 05:30:41;;;;;;;3.95;1.73;;;;;;;13.72;49.83;102427.47;5034632;28;20108;-67
2023/01/03 05:33:06;;;;;;;3.95;1.77;;;;;;;13.74;49.95;102426.38;5052375;28;20615;-68
2023/01/03 05:35:32;;;;;;;1.55;1.45;;;;;;;13.79;50.33;102423.38;5052755;28;20146;-69
2023/01/03 05:37:57;;;;;;;8.23;1.75;;;;;;;13.81;49.99;102418.72;5016833;28;20104;-68
2023/01/03 05:40:22;;;;;;;5.68;1.77;;;;;;;13.86;49.79;102430.88;5036183;28;20092;-69
2023/01/03 05:42:48;;;;;;;4.97;2.00;;;;;;;13.90;50.28;102420.75;5045271;28;20036;-69
2023/01/03 05:45:13;;;;;;;4.95;2.85;;;;;;;13.93;49.26;102417.84;5056120;28;20087;-69
2023/01/03 05:47:39;;;;;;;6.05;1.98;;;;;;;13.95;48.68;102421.28;5056565;28;20045;-67
2023/01/03 05:50:05;;;;;;;4.32;1.30;;;;;;;13.94;48.70;102420.41;5036305;28;20041;-68
2023/01/03 05:52:30;;;;;;;5.60;1.67;;;;;;;13.95;50.05;102418.59;5018297;28;20573;-68
2023/01/03 05:54:55;;;;;;;2.53;1.33;;;;;;;13.95;49.84;102423.97;5036204;28;20030;-68
2023/01/03 05:57:21;;;;;;;4.22;1.77;;;;;;;13.95;49.48;102418.59;5036055;28;20033;-68
2023/01/03 05:59:46;;;;;;;3.63;1.85;;;;;;;13.96;49.43;102420.28;5036857;28;20037;-67
2023/01/03 06:02:11;;;;;;;5.30;2.08;;;;;;;13.95;48.65;102421.28;5056880;28;20036;-68
2023/01/03 06:04:37;;;;;;;2.33;1.25;;;;;;;13.93;48.68;102415.97;5055965;28;20044;-68
2023/01/03 06:07:02;;;;;;;4.07;1.80;;;;;;;13.93;49.04;102415.97;5055770;28;20044;-67
2023/01/03 06:09:27;;;;;;;2.33;1.65;;;;;;;13.92;49.01;102418.81;5055589;28;20032;-67
2023/01/03 06:11:53;;;;;;;2.22;1.45;;;;;;;13.91;49.99;102415.25;5055444;28;20058;-67
2023/01/03 06:14:18;;;;;;;3.80;1.75;;;;;;;13.90;49.83;102416.19;5055843;28;20029;-67
2023/01/03 06:19:28;;;;;;;3.00;1.50;;;;;;;13.89;48.86;102408.25;5040468;28;20040;-68
2023/01/03 06:21:53;;;;;;;2.72;1.60;;;;;;;13.89;49.44;102403.72;5055451;28;20029;-69
2023/01/03 06:24:19;;;;;;;3.10;1.90;;;;;;;13.89;49.79;102408.25;5055597;28;20025;-67
2023/01/03 06:26:44;;;;;;;6.95;2.05;;;;;;;13.88;49.14;102407.38;5055481;28;20495;-67
2023/01/03 06:29:10;;;;;;;3.22;1.48;;;;;;;13.88;50.26;102403.81;5055536;28;20037;-68
2023/01/03 06:31:35;;;;;;;5.68;1.85;;;;;;;13.87;49.69;102407.50;5055174;28;20041;-69
2023/01/03 06:34:02;;;;;;;4.38;2.25;;;;;;;13.87;48.81;102396.72;5037269;28;20041;-68
2023/01/03 06:36:27;;;;;;;7.93;2.30;;;;;;;13.86;48.89;102408.47;5054926;28;20036;-68
2023/01/03 06:38:53;;;;;;;5.25;1.95;;;;;;;13.85;49.87;102404.91;5037062;28;20029;-69
2023/01/03 06:41:18;;;;;;;2.10;1.48;;;;;;;13.89;50.20;102408.25;5056057;28;20029;-67
2023/01/03 06:43:44;;;;;;;5.53;1.90;;;;;;;13.90;48.69;102399.22;5055018;28;20140;-67
2023/01/03 06:54:29;;;;;;;4.20;2.03;;;;;;;13.91;50.30;102406.28;5025730;28;20063;-68
2023/01/03 06:56:55;;;;;;;7.53;1.75;;;;;;;13.93;50.52;102401.69;5054841;28;20029;-68
2023/01/03 06:59:21;;;;;;;4.65;1.95;;;;;;;13.92;49.99;102403.50;5037700;28;20388;-67
2023/01/03 07:01:47;;;;;;;6.72;1.80;;;;;;;13.97;50.52;102389.69;5054793;28;20051;-67
2023/01/03 07:04:13;;;;;;;4.50;1.40;;;;;;;13.98;49.79;102402.19;5036768;28;20037;-67
2023/01/03 07:06:39;;;;;;;2.90;1.67;;;;;;;14.00;49.44;102405.63;5054543;28;20079;-71
2023/01/03 07:09:05;;;;;;;2.85;1.80;;;;;;;14.00;50.20;102397.53;5036798;28;20507;-70
2023/01/03 07:11:30;;;;;;;3.92;1.88;;;;;;;13.98;50.67;102391.41;5054761;28;20142;-70
2023/01/03 07:13:58;;;;;;;5.57;1.98;;;;;;;13.95;51.07;102388.94;5054410;28;20033;-69
2023/01/03 07:16:38;;;;;;;4.68;1.85;;;;;;;13.97;49.39;102397.75;5036275;28;20033;-69
2023/01/03 07:19:05;;;;;;;6.80;2.30;;;;;;;14.00;49.94;102400.25;5054229;28;20056;-70
2023/01/03 07:21:32;;;;;;;3.47;1.95;;;;;;;14.05;49.77;102406.16;5054119;28;20061;-70
2023/01/03 07:24:02;;;;;;;7.43;1.88;;;;;;;14.10;51.07;102403.97;5054103;28;20025;-70
2023/01/03 07:26:32;;;;;;;5.47;2.20;;;;;;;14.15;51.13;102407.22;5054530;28;20024;-69
2023/01/03 07:28:58;;;;;;;4.68;1.85;;;;;;;14.19;50.58;102419.47;5036985;28;20036;-70
2023/01/03 07:31:24;;;;;;;4.00;1.50;;;;;;;14.24;51.11;102425.38;5053914;28;20544;-68
2023/01/03 07:33:49;;;;;;;1.83;1.30;;;;;;;14.27;49.54;102430.53;5053475;28;20039;-69
2023/01/03 07:36:15;;;;;;;2.85;1.88;;;;;;;14.31;49.78;102426.66;5035944;28;20048;-70
2023/01/03 07:38:43;;;;;;;2.92;1.27;;;;;;;14.33;49.83;102422.03;5036037;28;20045;-71
2023/01/03 07:41:09;;;;;;;2.72;1.65;;;;;;;14.33;49.89;102422.03;5054052;28;20060;-69
2023/01/03 07:43:41;;;;;;;3.30;1.27;;;;;;;14.35;49.15;102432.72;5036170;28;20059;-69
2023/01/03 07:46:23;;;;;;;6.10;1.95;;;;;;;14.32;49.56;102436.47;5053979;28;20079;-68
2023/01/03 07:48:50;;;;;;;4.40;2.00;;;;;;;14.31;50.50;102439.25;5044635;28;20060;-68
2023/01/03 07:51:17;;;;;;;4.75;2.00;;;;;;;14.30;50.31;102435.69;5020680;28;20653;-69
2023/01/03 07:53:43;;;;;;;5.15;1.88;;;;;;;14.32;50.05;102438.34;5035655;28;20025;-70
2023/01/03 07:56:11;;;;;;;4.47;1.85;;;;;;;14.33;50.54;102440.03;5034032;28;20050;-69
2023/01/03 07:58:37;;;;;;;1.85;1.70;;;;;;;14.36;49.92;102443.38;5031614;28;20404;-69
2023/01/03 08:01:13;;;;;;;3.30;1.77;;;;;;;14.39;50.66;102442.28;5052885;28;20029;-69
2023/01/03 08:03:39;;;;;;;2.40;1.88;;;;;;;14.40;48.96;102449.41;5045576;28;20040;-69
2023/01/03 08:06:11;;;;;;;3.70;2.00;;;;;;;14.41;50.64;102453.81;5033490;28;20026;-70
2023/01/03 08:08:37;;;;;;;4.65;1.92;;;;;;;14.43;49.91;102460.78;5030853;28;20026;-69
2023/01/03 08:13:47;;;;;;;3.47;2.10;;;;;;;14.42;50.09;102451.00;5052066;28;20588;-68
2023/01/03 08:16:13;;;;;;;2.60;1.10;;;;;;;14.40;49.78;102458.34;5053251;28;20094;-69
2023/01/03 08:18:40;;;;;;;3.92;1.83;;;;;;;14.41;50.89;102453.81;5053331;28;20021;-68
2023/01/03 08:21:07;;;;;;;2.78;1.50;;;;;;;14.41;49.82;102462.75;5053238;28;20546;-69
2023/01/03 08:23:33;;;;;;;3.28;1.92;;;;;;;14.43;50.77;102463.50;5053742;28;20469;-68
2023/01/03 08:26:04;;;;;;;3.75;1.67;;;;;;;14.47;50.68;102470.41;5053045;28;20036;-68
2023/01/03 08:28:30;;;;;;;8.90;2.30;;;;;;;14.48;49.29;102461.34;5035580;28;20037;-70
2023/01/03 08:30:56;;;;;;;4.60;1.95;;;;;;;14.51;50.59;102466.50;5035227;28;20055;-68
2023/01/03 08:33:22;;;;;;;7.45;2.63;;;;;;;14.50;49.09;102472.88;5053027;28;20492;-68
2023/01/03 08:36:02;;;;;;;4.43;2.13;;;;;;;14.51;50.51;102465.63;5052612;28;20044;-68
2023/01/03 08:38:34;;;;;;;5.30;2.28;;;;;;;14.52;49.56;102470.91;5053150;28;20045;-70
2023/01/03 08:41:00;;;;;;;3.35;1.40;;;;;;;14.51;49.57;102466.50;5035227;28;20125;-68
2023/01/03 08:43:29;;;;;;;4.22;1.90;;;;;;;14.51;49.31;102479.13;5052952;28;20078;-70
2023/01/03 08:45:54;;;;;;;1.75;1.30;;;;;;;14.52;49.45;102475.44;5034958;28;20382;-69
2023/01/03 08:48:21;;;;;;;4.55;2.38;;;;;;;14.54;50.32;102485.13;5034960;28;20071;-69
2023/01/03 08:50:46;;;;;;;3.00;1.73;;;;;;;14.55;49.90;102486.84;5034948;28;20028;-69
2023/01/03 08:53:12;;;;;;;3.63;1.80;;;;;;;14.59;49.78;102490.19;5053143;28;20499;-70
2023/01/03 08:55:37;;;;;;;5.40;2.55;;;;;;;14.62;50.16;102486.41;5034985;28;20037;-70
2023/01/03 08:58:02;;;;;;;5.38;2.20;;;;;;;14.69;49.39;102482.25;5035070;28;20037;-70
2023/01/03 09:00:28;;;;;;;9.43;2.20;;;;;;;14.71;50.65;102483.03;5035033;28;20053;-70
2023/01/03 09:02:58;;;;;;;3.85;1.67;;;;;;;14.73;50.62;102481.94;5034770;28;20020;-70
2023/01/03 09:05:25;;;;;;;4.97;1.95;;;;;;;14.75;49.80;102496.16;5053222;28;20476;-69
2023/01/03 09:07:50;;;;;;;3.92;2.03;;;;;;;14.79;50.88;102481.47;5035324;28;20120;-71
2023/01/03 09:10:15;;;;;;;6.25;2.08;;;;;;;14.84;50.05;102487.38;5052714;28;20107;-69
2023/01/03 09:12:41;;;;;;;5.72;2.38;;;;;;;14.88;49.70;102493.41;5037083;28;20415;-70
2023/01/03 09:15:06;;;;;;;5.50;2.10;;;;;;;14.92;50.85;102486.78;5056641;28;20044;-70
2023/01/03 09:17:32;;;;;;;4.57;1.95;;;;;;;15.00;49.97;102484.38;5057168;28;20025;-70
2023/01/03 09:19:57;;;;;;;5.38;2.15;;;;;;;15.02;49.64;102477.00;5038637;28;20033;-69
2023/01/03 09:22:22;;;;;;;2.58;1.73;;;;;;;15.05;49.81;102476.78;5056562;28;20037;-69
2023/01/03 09:24:48;;;;;;;7.10;2.08;;;;;;;15.10;49.49;102480.00;5038689;28;20033;-69
2023/01/03 09:27:13;;;;;;;5.30;1.60;;;;;;;15.14;50.00;102486.88;5038585;28;20477;-69
2023/01/03 09:29:39;;;;;;;3.50;1.73;;;;;;;15.21;49.42;102482.72;5057131;28;20057;-69
2023/01/03 09:32:04;;;;;;;9.32;2.28;;;;;;;15.23;49.12;102480.75;5056569;28;20040;-69
2023/01/03 09:34:29;;;;;;;4.50;1.60;;;;;;;15.27;50.22;102484.94;5056831;28;20049;-69
2023/01/03 09:36:55;;;;;;;7.05;2.13;;;;;;;15.31;49.72;102494.53;5055743;28;20056;-69
2023/01/03 09:39:20;;;;;;;5.25;1.95;;;;;;;15.34;50.23;102488.03;5056246;28;20053;-69
2023/01/03 09:43:11;;;;;;;3.38;1.90;;;;;;;15.34;50.36;102499.69;5055904;28;20075;-69
2023/01/03 09:44:31;;;;;;;3.38;1.85;;;;;;;15.35;50.94;102505.97;5056349;28;20074;-70
2023/01/03 09:46:57;;;;;;;2.83;1.90;;;;;;;15.38;50.49;102500.31;5038352;28;20487;-70
2023/01/03 09:49:22;;;;;;;7.20;1.55;;;;;;;15.42;50.51;102507.19;5038066;28;20408;-69
2023/01/03 10:03:44;;;;;;;3.47;1.95;;;;;;;15.47;49.98;102511.28;5040913;28;20130;-70
2023/01/03 10:06:09;;;;;;;7.95;1.95;;;;;;;15.50;49.66;102511.06;5055797;28;20032;-69
2023/01/03 10:08:56;;;;;;;9.98;1.95;;;;;;;15.52;50.17;102509.09;5056496;28;20029;-69
2023/01/03 10:11:34;;;;;;;2.58;1.55;;;;;;;15.55;50.01;102508.00;5055641;28;20045;-69
2023/01/03 10:14:17;;;;;;;6.20;2.22;;;;;;;15.56;49.81;102518.69;5037938;28;20073;-68
2023/01/03 10:16:42;;;;;;;2.58;1.42;;;;;;;15.58;50.20;102503.19;5037642;28;20029;-69
2023/01/03 10:19:29;;;;;;;4.82;1.73;;;;;;;15.63;49.95;102506.41;5037816;28;20086;-69
2023/01/03 10:22:14;;;;;;;4.72;1.83;;;;;;;15.66;50.13;102502.63;5037608;28;20041;-69
2023/01/03 10:24:46;;;;;;;2.90;1.80;;;;;;;15.77;49.68;102499.06;5054784;28;20025;-70
2023/01/03 10:27:14;;;;;;;5.30;2.00;;;;;;;15.89;50.45;102500.75;5055759;28;20037;-69
2023/01/03 10:29:40;;;;;;;2.45;1.42;;;;;;;15.97;50.52;102493.78;5055880;28;20028;-70
2023/01/03 10:32:08;;;;;;;3.33;1.58;;;;;;;16.02;50.62;102486.19;5037420;28;20060;-71
2023/01/03 10:34:36;;;;;;;3.25;1.80;;;;;;;16.11;49.67;102495.34;5037259;28;20037;-70
2023/01/03 10:37:14;;;;;;;6.07;1.88;;;;;;;16.17;50.26;102494.88;5036826;28;20060;-70
2023/01/03 10:39:39;;;;;;;4.85;1.67;;;;;;;16.23;50.26;102494.38;5037362;28;20033;-70
2023/01/03 10:42:05;;;;;;;3.63;1.73;;;;;;;16.31;50.59;102490.06;5037212;28;20496;-69
2023/01/03 10:44:31;;;;;;;5.13;1.70;;;;;;;16.34;48.90;102491.66;5055383;28;20039;-69
2023/01/03 10:47:14;;;;;;;5.47;1.50;;;;;;;16.36;50.04;102484.25;5055009;28;20074;-69
2023/01/03 10:49:43;;;;;;;4.15;1.10;;;;;;;16.43;49.62;102480.09;5037162;28;20498;-69
2023/01/03 10:52:13;;;;;;;3.97;0.93;;;;;;;16.51;49.54;102474.91;5055034;28;20124;-70
2023/01/03 10:54:41;;;;;;;6.43;1.08;;;;;;;16.51;49.41;102480.31;5037242;28;20029;-69
2023/01/03 10:57:07;;;;;;;7.22;1.08;;;;;;;16.54;49.96;102477.38;5054719;28;20060;-69
2023/01/03 10:59:32;;;;;;;3.38;0.93;;;;;;;16.62;49.73;102469.47;5037507;28;20480;-70
2023/01/03 11:02:17;;;;;;;4.80;1.10;;;;;;;16.73;48.87;102469.44;5054704;28;20125;-71
2023/01/03 11:04:43;;;;;;;5.10;1.30;;;;;;;16.79;49.23;102463.50;5036777;28;20033;-69
2023/01/03 11:07:10;;;;;;;2.13;0.98;;;;;;;16.91;49.46;102463.47;5036798;28;20044;-70
2023/01/03 11:09:48;;;;;;;6.80;1.10;;;;;;;16.99;48.30;102466.38;5054604;28;20033;-71
2023/01/03 11:12:29;;;;;;;1.20;0.60;;;;;;;17.04;49.25;102464.13;5054528;28;20113;-70
2023/01/03 11:14:56;;;;;;;3.72;1.20;;;;;;;17.09;48.60;102461.88;5036560;28;20036;-71
2023/01/03 11:17:24;;;;;;;2.58;2.05;;;;;;;17.20;48.77;102459.09;5037158;28;20109;-69
2023/01/03 11:19:50;;;;;;;3.05;0.68;;;;;;;17.23;48.51;102461.56;5054276;28;20043;-71
2023/01/03 11:22:22;;;;;;;4.75;0.82;;;;;;;17.26;49.31;102470.28;5036849;28;20057;-70
2023/01/03 11:25:29;;;;;;;1.63;0.82;;;;;;;17.29;48.94;102459.19;5054282;28;20527;-69
2023/01/03 11:28:08;;;;;;;5.22;1.67;;;;;;;17.24;48.51;102463.28;5053662;28;20044;-69
2023/01/03 11:30:48;;;;;;;3.97;0.80;;;;;;;17.21;48.52;102458.13;5019737;28;20140;-69
2023/01/03 11:33:30;;;;;;;1.27;0.85;;;;;;;17.19;48.70;102452.00;5054156;28;20493;-70
2023/01/03 11:36:04;;;;;;;0.45;0.30;;;;;;;17.18;48.94;102458.38;5052552;28;20124;-71
2023/01/03 11:38:54;;;;;;;4.68;0.75;;;;;;;17.21;48.82;102455.41;5054019;28;20040;-69
2023/01/03 11:41:30;;;;;;;1.00;0.45;;;;;;;17.29;48.58;102452.91;5054344;28;20041;-69
2023/01/03 11:44:26;;;;;;;4.07;0.73;;;;;;;17.31;48.73;102451.78;5053927;28;20493;-69
2023/01/03 11:47:01;;;;;;;3.83;0.47;;;;;;;17.41;47.54;102452.72;5053875;28;20511;-68
2023/01/03 11:49:36;;;;;;;4.07;0.60;;;;;;;17.47;48.22;102452.16;5054021;28;20037;-69
2023/01/03 11:52:09;;;;;;;1.95;0.35;;;;;;;17.55;48.26;102438.00;5053682;28;20071;-69
2023/01/03 11:54:43;;;;;;;;;;;;;;;17.68;47.80;102433.19;5036337;28;20382;-69
2023/01/03 11:57:19;;;;;;;0.30;0.20;;;;;;;17.69;48.06;102437.63;5053859;28;19956;-69
2023/01/03 12:00:07;;;;;;;2.63;0.60;;;;;;;17.71;47.69;102449.19;5035893;28;20108;-69
2023/01/03 12:03:03;;;;;;;5.03;0.63;;;;;;;17.70;47.73;102443.91;5040376;28;20036;-69
2023/01/03 12:05:40;;;;;;;0.57;0.50;;;;;;;17.67;47.78;102445.00;5016456;28;20148;-70
2023/01/03 12:08:17;;;;;;;2.33;0.38;;;;;;;17.69;47.43;102445.75;5053469;28;20447;-69
2023/01/03 12:11:15;;;;;;;2.75;0.47;;;;;;;17.73;47.36;102441.75;5053489;28;20451;-69
2023/01/03 12:14:01;;;;;;;1.77;0.20;;;;;;;17.72;47.75;102437.34;5040139;28;20033;-69
2023/01/03 12:16:35;;;;;;;2.30;0.32;;;;;;;17.66;47.74;102429.78;5053348;28;20056;-68
2023/01/03 12:19:04;;;;;;;0.70;0.30;;;;;;;17.65;47.97;102425.34;5035591;28;20044;-69
2023/01/03 12:21:36;;;;;;;0.55;0.28;;;;;;;17.61;47.58;102428.47;5053196;28;20114;-70
2023/01/03 12:24:04;;;;;;;1.80;0.70;;;;;;;17.58;47.47;102429.59;5035396;28;20508;-69
2023/01/03 12:26:29;;;;;;;2.80;0.50;;;;;;;17.54;47.56;102430.84;5035791;28;20024;-69
2023/01/03 12:29:03;;;;;;;1.27;0.40;;;;;;;17.47;46.94;102429.66;5053355;28;20045;-69
2023/01/03 12:31:36;;;;;;;0.20;0.20;;;;;;;17.41;46.30;102430.19;5053162;28;20036;-69
2023/01/03 12:34:25;;;;;;;0.20;0.20;;;;;;;17.34;47.77;102423.56;5035263;28;20033;-70
2023/01/03 12:37:07;;;;;;;4.30;0.40;;;;;;;17.25;47.21;102418.97;5052793;28;20052;-69